Time;durP1;ratioP1;P1;durP2;ratioP2;P2;SDS_P1;SDS_P2;PMS_P1;PMS_P2;Temp;Humidity;BMP_temperature;BMP_pressure;BME280_temperature;BME280_humidity;BME280_pressure;Samples;Min_cycle;Max_cycle;Signal;HPM_P1;HPM_P2
2022/07/05 00:00:34;;;;;;;2.42;1.85;;;24.80;95.60;;;;;;5014096;28;20539;-76
2022/07/05 00:03:00;;;;;;;2.92;1.70;;;24.80;95.30;;;;;;5014398;28;20026;-76
2022/07/05 00:05:25;;;;;;;3.05;1.60;;;24.80;95.30;;;;;;5014221;28;20515;-76
2022/07/05 00:07:51;;;;;;;1.67;1.58;;;24.80;95.00;;;;;;5014236;28;20403;-77
2022/07/05 00:10:17;;;;;;;2.13;1.25;;;24.70;94.70;;;;;;4996399;28;20418;-76
2022/07/05 00:12:43;;;;;;;1.65;1.55;;;24.70;94.30;;;;;;5014041;28;20503;-76
2022/07/05 00:15:09;;;;;;;1.52;1.42;;;24.70;94.30;;;;;;5013967;28;20400;-75
2022/07/05 00:17:34;;;;;;;1.85;1.38;;;24.70;94.90;;;;;;4996539;28;20025;-76
2022/07/05 00:20:00;;;;;;;1.60;1.50;;;24.70;95.10;;;;;;5013963;28;20026;-76
2022/07/05 00:22:26;;;;;;;1.40;1.40;;;24.60;94.10;;;;;;4996389;28;20018;-76
2022/07/05 00:24:52;;;;;;;1.35;1.25;;;24.60;94.00;;;;;;4996344;28;20144;-76
2022/07/05 00:27:18;;;;;;;2.42;1.27;;;24.50;94.20;;;;;;4996308;28;20038;-76
2022/07/05 00:29:44;;;;;;;1.42;1.33;;;24.60;93.90;;;;;;4995838;28;20121;-75
2022/07/05 00:32:10;;;;;;;1.20;1.08;;;24.70;93.50;;;;;;5013827;28;20053;-76
2022/07/05 00:34:35;;;;;;;1.92;1.05;;;24.80;93.00;;;;;;4996026;28;20570;-76
2022/07/05 00:37:01;;;;;;;3.30;1.40;;;24.80;92.50;;;;;;4995265;28;20380;-76
2022/07/05 00:39:27;;;;;;;3.47;1.55;;;24.90;92.20;;;;;;5013705;28;20025;-76
2022/07/05 00:41:53;;;;;;;2.78;1.50;;;24.90;92.10;;;;;;4995855;28;20502;-76
2022/07/05 00:44:29;;;;;;;2.17;1.52;;;24.80;92.10;;;;;;5013491;28;20655;-76
2022/07/05 00:46:55;;;;;;;2.97;1.33;;;24.80;92.50;;;;;;4995776;28;20052;-76
2022/07/05 00:49:20;;;;;;;2.30;0.93;;;24.90;91.70;;;;;;5013338;28;20447;-76
2022/07/05 00:51:46;;;;;;;4.63;1.05;;;24.90;91.30;;;;;;5013516;28;20034;-76
2022/07/05 00:54:12;;;;;;;2.45;0.90;;;25.00;90.90;;;;;;5013365;28;20018;-76
2022/07/05 00:56:38;;;;;;;1.00;0.90;;;25.00;90.80;;;;;;5013299;28;20037;-76
2022/07/05 00:59:04;;;;;;;4.68;1.48;;;25.00;90.60;;;;;;4995426;28;20468;-76
2022/07/05 01:01:29;;;;;;;6.90;0.90;;;25.00;90.20;;;;;;5013087;28;20029;-76
2022/07/05 01:03:55;;;;;;;1.77;1.30;;;25.10;90.10;;;;;;5012823;28;20045;-76
2022/07/05 01:06:21;;;;;;;0.73;0.73;;;25.00;89.80;;;;;;5013020;28;20129;-76
2022/07/05 01:08:47;;;;;;;0.90;0.80;;;25.10;89.70;;;;;;4995269;28;20125;-76
2022/07/05 01:11:13;;;;;;;1.30;1.20;;;25.00;89.40;;;;;;5012945;28;20104;-76
2022/07/05 01:13:39;;;;;;;1.88;0.90;;;25.00;88.60;;;;;;5012786;28;20026;-76
2022/07/05 01:16:05;;;;;;;2.28;1.00;;;25.10;88.40;;;;;;4995169;28;20076;-77
2022/07/05 01:18:32;;;;;;;0.80;0.80;;;25.10;88.20;;;;;;5012270;28;20029;-75
2022/07/05 01:20:59;;;;;;;1.10;0.88;;;25.10;88.50;;;;;;5012594;28;20014;-76
2022/07/05 01:23:31;;;;;;;1.20;0.65;;;25.10;88.60;;;;;;5013179;28;20029;-76
2022/07/05 01:26:02;;;;;;;1.65;0.90;;;25.10;88.00;;;;;;4995284;28;20033;-76
2022/07/05 01:28:28;;;;;;;0.87;0.87;;;25.10;86.80;;;;;;5012881;28;20026;-76
2022/07/05 01:30:54;;;;;;;1.13;1.02;;;25.10;86.60;;;;;;5012742;28;20268;-76
2022/07/05 01:33:30;;;;;;;0.70;0.70;;;25.10;86.30;;;;;;5013019;28;20488;-76
2022/07/05 01:35:57;;;;;;;2.17;0.82;;;25.10;86.30;;;;;;4995144;28;20494;-75
2022/07/05 01:38:24;;;;;;;3.22;0.80;;;25.10;86.20;;;;;;5012704;28;20054;-76
2022/07/05 01:40:51;;;;;;;2.35;0.95;;;25.10;85.80;;;;;;5012548;28;20419;-76
2022/07/05 01:43:21;;;;;;;0.70;0.70;;;25.10;85.60;;;;;;5012634;28;20022;-75
2022/07/05 01:45:47;;;;;;;6.95;0.70;;;25.20;85.10;;;;;;5012828;28;20080;-76
2022/07/05 01:48:17;;;;;;;0.68;0.68;;;25.10;85.00;;;;;;5015669;28;20053;-75
2022/07/05 01:50:54;;;;;;;1.65;0.57;;;25.20;84.50;;;;;;5016470;28;20022;-76
2022/07/05 01:53:27;;;;;;;0.70;0.70;;;25.20;83.80;;;;;;5016351;28;20034;-75
2022/07/05 01:55:55;;;;;;;0.82;0.73;;;25.20;83.30;;;;;;5016398;28;20034;-76
2022/07/05 01:58:21;;;;;;;1.55;0.85;;;25.20;83.20;;;;;;5016554;28;20113;-76
2022/07/05 02:00:50;;;;;;;1.52;0.90;;;25.30;82.90;;;;;;5016459;28;20058;-75
2022/07/05 02:03:17;;;;;;;0.40;0.40;;;25.30;83.10;;;;;;5016573;28;20046;-75
2022/07/05 02:05:44;;;;;;;1.00;0.65;;;25.30;82.70;;;;;;5016438;28;20057;-75
2022/07/05 02:08:11;;;;;;;0.77;0.63;;;25.30;82.70;;;;;;4998700;28;20034;-76
2022/07/05 02:10:38;;;;;;;0.95;0.70;;;25.40;83.00;;;;;;5016347;28;20030;-76
2022/07/05 02:13:04;;;;;;;1.50;0.88;;;25.40;82.60;;;;;;4998732;28;20053;-76
2022/07/05 02:15:36;;;;;;;0.80;0.80;;;25.40;82.50;;;;;;4998597;28;20065;-76
2022/07/05 02:18:02;;;;;;;;;;;25.50;82.30;;;;;;4998900;28;20061;-76
2022/07/05 02:20:29;;;;;;;1.05;0.60;;;25.50;82.00;;;;;;4998606;28;19913;-76
2022/07/05 02:22:55;;;;;;;0.50;0.50;;;25.40;81.70;;;;;;4998451;28;20022;-76
2022/07/05 02:25:21;;;;;;;0.70;0.70;;;25.50;81.90;;;;;;5016197;28;20101;-76
2022/07/05 02:27:47;;;;;;;2.03;0.98;;;25.50;81.70;;;;;;5016064;28;20022;-76
2022/07/05 02:30:14;;;;;;;2.22;1.02;;;25.50;81.80;;;;;;5015807;28;20026;-76
2022/07/05 02:32:40;;;;;;;2.03;0.90;;;25.50;81.70;;;;;;5016053;28;20022;-75
2022/07/05 02:35:07;;;;;;;0.93;0.70;;;25.50;81.70;;;;;;5016044;28;20388;-77
2022/07/05 02:37:33;;;;;;;0.52;0.52;;;25.50;81.60;;;;;;5015875;28;20125;-76
2022/07/05 02:39:59;;;;;;;0.63;0.63;;;25.50;81.60;;;;;;5015721;28;20037;-76
2022/07/05 02:42:25;;;;;;;1.65;0.80;;;25.50;81.40;;;;;;5015745;28;20492;-75
2022/07/05 02:44:50;;;;;;;2.25;0.80;;;25.50;81.60;;;;;;5015741;28;20021;-75
2022/07/05 02:47:16;;;;;;;3.20;0.77;;;25.40;81.50;;;;;;5015786;28;20022;-76
2022/07/05 02:49:42;;;;;;;0.98;0.80;;;25.40;81.40;;;;;;5015555;28;20109;-76
2022/07/05 02:52:08;;;;;;;0.93;0.70;;;25.30;81.20;;;;;;4997883;28;20042;-76
2022/07/05 02:54:33;;;;;;;1.75;0.70;;;25.30;81.40;;;;;;5015364;28;20056;-76
2022/07/05 02:57:00;;;;;;;0.93;0.90;;;25.30;82.10;;;;;;5015553;28;20034;-75
2022/07/05 02:59:26;;;;;;;0.90;0.90;;;25.30;82.40;;;;;;5014642;28;20064;-76
2022/07/05 03:01:51;;;;;;;0.73;0.73;;;25.20;82.90;;;;;;5015516;28;20045;-76
2022/07/05 03:04:17;;;;;;;0.85;0.85;;;25.20;82.50;;;;;;5015164;28;20431;-76
2022/07/05 03:06:43;;;;;;;1.08;0.98;;;25.30;82.20;;;;;;4997712;28;20030;-76
2022/07/05 03:09:10;;;;;;;2.00;1.00;;;25.30;82.30;;;;;;5015342;28;20036;-76
2022/07/05 03:11:35;;;;;;;1.20;0.82;;;25.30;81.70;;;;;;4997738;28;20026;-77
2022/07/05 03:14:01;;;;;;;0.77;0.73;;;25.30;81.70;;;;;;5015084;28;20025;-75
2022/07/05 03:16:29;;;;;;;2.03;0.98;;;25.30;81.60;;;;;;4997532;28;20029;-75
2022/07/05 03:18:55;;;;;;;1.48;0.80;;;25.20;81.50;;;;;;4997281;28;20511;-76
2022/07/05 03:21:21;;;;;;;0.73;0.73;;;25.20;81.40;;;;;;5015120;28;20076;-75
2022/07/05 03:23:47;;;;;;;0.57;0.57;;;25.20;81.20;;;;;;4997461;28;20030;-76
2022/07/05 03:26:13;;;;;;;1.65;0.85;;;25.20;80.70;;;;;;5014992;28;21164;-76
2022/07/05 03:28:39;;;;;;;2.17;0.80;;;25.30;80.70;;;;;;4986756;28;20370;-75
2022/07/05 03:31:04;;;;;;;3.70;1.50;;;25.30;80.20;;;;;;4995240;28;20636;-76
2022/07/05 03:33:30;;;;;;;2.22;0.55;;;25.40;80.40;;;;;;4995024;28;20033;-76
2022/07/05 03:35:57;;;;;;;0.68;0.60;;;25.40;79.70;;;;;;4994997;28;20058;-75
2022/07/05 03:38:23;;;;;;;0.80;0.80;;;25.40;79.50;;;;;;4994989;28;20018;-75
2022/07/05 03:40:48;;;;;;;1.67;0.70;;;25.50;79.70;;;;;;4994981;28;20027;-76
2022/07/05 03:43:14;;;;;;;2.42;0.88;;;25.50;79.30;;;;;;4977653;28;20022;-76
2022/07/05 03:45:40;;;;;;;5.50;1.10;;;25.50;80.80;;;;;;4977523;28;20467;-76
2022/07/05 03:48:05;;;;;;;2.25;0.80;;;25.50;81.90;;;;;;4995002;28;20110;-76
2022/07/05 03:50:31;;;;;;;1.48;0.65;;;25.50;80.40;;;;;;4995127;28;20026;-76
2022/07/05 03:52:57;;;;;;;0.65;0.65;;;25.60;80.10;;;;;;4977440;28;20026;-76
2022/07/05 03:55:23;;;;;;;0.90;0.52;;;25.70;79.50;;;;;;4994851;28;20026;-76
2022/07/05 03:57:48;;;;;;;2.13;0.77;;;25.60;78.40;;;;;;4977442;28;20105;-76
2022/07/05 04:00:15;;;;;;;0.57;0.57;;;25.70;78.40;;;;;;4994721;28;20050;-76
2022/07/05 04:02:41;;;;;;;1.70;0.85;;;25.70;78.10;;;;;;4994761;28;20057;-76
2022/07/05 04:05:07;;;;;;;1.88;0.80;;;25.70;78.60;;;;;;4994891;28;20100;-76
2022/07/05 04:07:34;;;;;;;5.45;0.57;;;25.60;78.30;;;;;;4994559;28;20041;-75
2022/07/05 04:09:59;;;;;;;2.03;0.70;;;25.60;78.40;;;;;;4994501;28;20038;-76
2022/07/05 04:12:26;;;;;;;0.80;0.80;;;25.60;79.30;;;;;;4977086;28;20072;-75
2022/07/05 04:14:52;;;;;;;0.65;0.50;;;25.50;79.20;;;;;;4994459;28;20035;-76
2022/07/05 04:17:17;;;;;;;2.78;0.63;;;25.50;79.60;;;;;;4994406;28;20101;-76
2022/07/05 04:19:43;;;;;;;0.80;0.80;;;25.50;79.20;;;;;;4994097;28;20508;-76
2022/07/05 04:22:09;;;;;;;0.60;0.60;;;25.60;79.50;;;;;;4977015;28;20025;-75
2022/07/05 04:25:16;;;;;;;0.70;0.63;;;25.50;82.00;;;;;;4994504;28;20023;-75
2022/07/05 04:27:21;;;;;;;0.73;0.73;;;25.50;81.80;;;;;;4993953;28;20424;-76
2022/07/05 04:29:47;;;;;;;0.50;0.50;;;25.50;79.80;;;;;;4994173;28;20030;-75
2022/07/05 04:32:13;;;;;;;1.25;0.80;;;25.50;78.80;;;;;;4994034;28;20065;-77
2022/07/05 04:34:38;;;;;;;3.15;0.95;;;25.50;78.30;;;;;;4994287;28;20489;-76
2022/07/05 04:37:04;;;;;;;1.00;0.70;;;25.50;78.00;;;;;;4976542;28;20030;-76
2022/07/05 04:39:30;;;;;;;1.20;0.85;;;25.40;78.50;;;;;;4993918;28;20370;-76
2022/07/05 04:41:55;;;;;;;0.60;0.60;;;25.40;78.40;;;;;;4994197;28;20030;-76
2022/07/05 04:44:22;;;;;;;1.00;0.77;;;25.50;78.10;;;;;;4976545;28;20484;-75
2022/07/05 04:46:47;;;;;;;2.72;0.93;;;25.50;77.00;;;;;;4976469;28;20121;-76
2022/07/05 04:49:13;;;;;;;1.05;0.80;;;25.50;81.60;;;;;;4978918;28;20141;-76
2022/07/05 04:51:39;;;;;;;1.20;1.10;;;25.30;85.20;;;;;;4993197;28;20673;-76
2022/07/05 04:54:04;;;;;;;3.70;1.50;;;25.20;88.40;;;;;;4995879;28;20030;-77
2022/07/05 04:56:30;;;;;;;4.85;0.93;;;25.00;90.30;;;;;;5013231;28;20029;-76
2022/07/05 04:58:56;;;;;;;3.65;1.15;;;24.90;90.70;;;;;;5007360;28;20100;-76
2022/07/05 05:01:22;;;;;;;3.20;1.50;;;24.90;90.80;;;;;;4985417;28;20152;-76
2022/07/05 05:03:47;;;;;;;1.75;0.93;;;24.80;90.60;;;;;;4995654;28;20053;-76
2022/07/05 05:06:14;;;;;;;1.10;1.10;;;25.00;90.60;;;;;;5013256;28;20061;-77
2022/07/05 05:08:41;;;;;;;1.98;1.05;;;25.10;90.50;;;;;;5013198;28;20391;-76
2022/07/05 05:11:07;;;;;;;2.60;0.88;;;25.20;90.20;;;;;;5013325;28;20112;-77
2022/07/05 05:13:33;;;;;;;0.80;0.77;;;25.20;89.80;;;;;;4995692;28;20030;-76
2022/07/05 05:15:59;;;;;;;3.17;1.27;;;25.20;90.40;;;;;;4995644;28;20036;-76
2022/07/05 05:18:26;;;;;;;2.65;0.82;;;25.30;91.00;;;;;;5013217;28;20045;-76
2022/07/05 05:20:54;;;;;;;1.10;0.98;;;25.30;91.00;;;;;;4995669;28;20028;-76
2022/07/05 05:23:22;;;;;;;7.47;0.95;;;25.30;91.30;;;;;;5002632;28;20069;-77
2022/07/05 05:25:48;;;;;;;2.00;1.10;;;25.30;92.10;;;;;;4999699;28;20468;-76
2022/07/05 05:28:13;;;;;;;1.17;0.93;;;25.30;92.20;;;;;;4998736;28;20026;-76
2022/07/05 05:30:39;;;;;;;0.80;0.80;;;25.30;92.60;;;;;;4999699;28;20085;-76
2022/07/05 05:33:05;;;;;;;3.45;0.90;;;25.30;92.60;;;;;;4999797;28;20032;-76
2022/07/05 05:35:31;;;;;;;3.67;1.05;;;25.40;92.50;;;;;;4998062;28;20125;-76
2022/07/05 05:37:56;;;;;;;0.77;0.77;;;25.40;92.50;;;;;;4999728;28;20023;-76
2022/07/05 05:40:25;;;;;;;0.82;0.82;;;25.50;92.60;;;;;;4999765;28;20026;-76
2022/07/05 05:42:52;;;;;;;1.40;0.95;;;25.50;92.70;;;;;;4999662;28;20023;-75
2022/07/05 05:45:19;;;;;;;2.33;1.00;;;25.50;92.60;;;;;;4999657;28;20022;-76
2022/07/05 05:47:50;;;;;;;2.10;0.80;;;25.60;92.60;;;;;;4999544;28;20027;-77
2022/07/05 05:50:24;;;;;;;3.45;1.10;;;25.60;92.30;;;;;;4998117;28;20084;-76
2022/07/05 05:52:50;;;;;;;1.40;1.15;;;25.60;91.10;;;;;;4999456;28;20034;-76
2022/07/05 05:55:16;;;;;;;1.90;1.17;;;25.70;91.30;;;;;;4997954;28;20089;-76
2022/07/05 05:57:42;;;;;;;0.82;0.82;;;25.80;91.30;;;;;;4999455;28;20110;-76
2022/07/05 06:00:10;;;;;;;0.73;0.73;;;25.90;91.80;;;;;;4999838;28;20121;-76
2022/07/05 06:02:36;;;;;;;1.08;0.95;;;26.00;91.00;;;;;;4999654;28;20048;-76
2022/07/05 06:05:01;;;;;;;3.83;0.90;;;26.10;90.40;;;;;;5010970;28;20081;-76
2022/07/05 06:07:27;;;;;;;0.70;0.70;;;26.10;90.50;;;;;;5001553;28;20053;-76
2022/07/05 06:09:53;;;;;;;3.53;1.08;;;26.10;88.30;;;;;;5001420;28;20030;-77
2022/07/05 06:12:19;;;;;;;0.85;0.85;;;26.10;88.60;;;;;;5019334;28;20057;-76
2022/07/05 06:14:47;;;;;;;3.47;1.00;;;26.20;86.90;;;;;;5019295;28;20071;-76
2022/07/05 06:17:13;;;;;;;1.45;1.05;;;26.20;87.00;;;;;;5019067;28;20508;-76
2022/07/05 06:19:39;;;;;;;2.58;1.10;;;26.30;87.70;;;;;;5019091;28;20018;-77
2022/07/05 06:22:04;;;;;;;6.22;1.20;;;26.30;87.90;;;;;;5001707;28;20057;-76
2022/07/05 06:24:30;;;;;;;5.20;0.98;;;26.40;87.70;;;;;;5019230;28;20026;-76
2022/07/05 06:26:56;;;;;;;1.58;0.90;;;26.40;87.40;;;;;;5019229;28;20112;-76
2022/07/05 06:29:21;;;;;;;1.85;0.90;;;26.40;85.50;;;;;;5001698;28;20141;-77
2022/07/05 06:31:47;;;;;;;1.10;1.00;;;26.40;85.30;;;;;;5018984;28;20053;-76
2022/07/05 06:34:13;;;;;;;2.35;1.50;;;26.40;84.80;;;;;;5015816;28;20542;-76
2022/07/05 06:36:38;;;;;;;2.03;1.20;;;26.50;83.90;;;;;;4998336;28;20030;-76
2022/07/05 06:39:04;;;;;;;3.97;1.38;;;26.40;84.30;;;;;;5016057;28;20029;-76
2022/07/05 06:41:30;;;;;;;1.23;0.90;;;26.50;83.70;;;;;;5015983;28;20014;-76
2022/07/05 06:43:56;;;;;;;6.40;1.52;;;26.50;82.60;;;;;;4998469;28;20026;-76
2022/07/05 06:46:21;;;;;;;0.80;0.80;;;26.60;84.00;;;;;;5015636;28;20022;-76
2022/07/05 06:48:47;;;;;;;2.47;1.02;;;26.60;82.50;;;;;;5015560;28;20034;-76
2022/07/05 06:51:13;;;;;;;2.80;1.20;;;26.60;84.70;;;;;;5015378;28;20030;-76
2022/07/05 06:53:38;;;;;;;2.88;1.27;;;26.60;84.60;;;;;;5015469;28;20026;-76
2022/07/05 06:56:04;;;;;;;1.67;1.33;;;26.70;84.80;;;;;;4997727;28;20034;-76
2022/07/05 06:58:30;;;;;;;1.88;1.02;;;26.70;84.70;;;;;;4997603;28;20062;-76
2022/07/05 07:00:56;;;;;;;1.38;1.30;;;26.60;85.50;;;;;;5015426;28;20048;-77
2022/07/05 07:03:21;;;;;;;5.50;5.03;;;26.60;85.80;;;;;;5015428;28;20149;-77
2022/07/05 07:05:47;;;;;;;5.80;1.65;;;26.60;90.50;;;;;;5015229;28;20053;-77
2022/07/05 07:11:05;;;;;;;3.15;0.65;;;26.70;86.00;;;;;;4999580;28;20026;-76
2022/07/05 07:13:30;;;;;;;1.65;1.13;;;26.60;83.80;;;;;;5011292;28;20022;-75
2022/07/05 07:15:56;;;;;;;2.65;1.20;;;26.60;83.40;;;;;;4997315;28;20026;-75
2022/07/05 07:18:22;;;;;;;1.75;1.13;;;26.70;84.00;;;;;;5014861;28;20022;-76
2022/07/05 07:20:47;;;;;;;2.53;0.80;;;26.70;84.40;;;;;;4997186;28;20026;-76
2022/07/05 07:23:13;;;;;;;3.58;1.08;;;26.80;84.50;;;;;;4997190;28;20081;-75
2022/07/05 07:25:39;;;;;;;2.83;1.40;;;26.90;84.70;;;;;;4997223;28;20022;-76
2022/07/05 07:28:06;;;;;;;3.88;1.40;;;27.00;85.10;;;;;;5014733;28;20101;-76
2022/07/05 07:30:31;;;;;;;2.25;1.30;;;26.90;82.60;;;;;;5014610;28;20025;-76
2022/07/05 07:32:57;;;;;;;3.13;1.30;;;26.90;84.00;;;;;;4997331;28;20026;-75
2022/07/05 07:35:23;;;;;;;2.25;1.45;;;27.00;83.20;;;;;;5014547;28;20022;-76
2022/07/05 07:37:49;;;;;;;1.63;1.00;;;27.10;83.60;;;;;;5014568;28;20104;-76
2022/07/05 07:40:14;;;;;;;1.65;1.10;;;27.10;82.00;;;;;;5014362;28;20045;-75
2022/07/05 07:42:40;;;;;;;5.50;1.40;;;27.20;81.80;;;;;;5014537;28;20057;-75
2022/07/05 07:45:07;;;;;;;3.25;1.20;;;27.20;81.40;;;;;;5014399;28;20014;-76
2022/07/05 07:47:33;;;;;;;1.33;1.23;;;27.20;81.50;;;;;;4996756;28;20068;-76
2022/07/05 07:50:00;;;;;;;1.70;1.60;;;27.20;80.70;;;;;;5014354;28;20435;-75
2022/07/05 07:52:27;;;;;;;2.65;1.30;;;27.20;80.80;;;;;;5014611;28;20037;-75
2022/07/05 07:54:53;;;;;;;1.23;1.13;;;27.40;81.60;;;;;;4996514;28;20117;-76
2022/07/05 07:57:18;;;;;;;1.50;1.40;;;27.40;81.40;;;;;;5014002;28;20010;-76
2022/07/05 07:59:44;;;;;;;1.95;1.70;;;27.40;80.90;;;;;;5014310;28;20049;-76
2022/07/05 08:02:10;;;;;;;1.95;1.45;;;27.40;80.50;;;;;;4996657;28;20013;-75
2022/07/05 08:04:36;;;;;;;1.27;1.10;;;27.40;80.00;;;;;;5014097;28;20176;-75
2022/07/05 08:07:03;;;;;;;3.22;1.73;;;27.50;81.10;;;;;;4996578;28;20030;-76
2022/07/05 08:09:29;;;;;;;6.43;1.83;;;27.60;79.80;;;;;;4996514;28;20084;-75
2022/07/05 08:11:55;;;;;;;4.45;1.73;;;27.60;79.60;;;;;;4996459;28;20069;-75
2022/07/05 08:14:22;;;;;;;2.20;1.80;;;27.60;80.80;;;;;;5013908;28;20022;-76
2022/07/05 08:16:49;;;;;;;10.95;1.85;;;27.70;80.10;;;;;;5013746;28;20030;-75
2022/07/05 08:21:59;;;;;;;2.13;1.75;;;27.70;80.40;;;;;;5014287;28;20021;-76
2022/07/05 08:24:25;;;;;;;7.20;1.58;;;27.80;80.60;;;;;;5013661;28;20034;-75
2022/07/05 08:26:50;;;;;;;2.60;1.80;;;27.90;82.20;;;;;;4996301;28;20410;-76
2022/07/05 08:29:16;;;;;;;4.63;1.33;;;28.00;83.60;;;;;;5013727;28;20026;-76
2022/07/05 08:31:44;;;;;;;5.60;1.55;;;28.00;81.80;;;;;;4996139;28;20022;-75
2022/07/05 08:34:11;;;;;;;1.83;1.50;;;28.10;81.10;;;;;;4995977;28;20045;-75
2022/07/05 08:36:37;;;;;;;2.60;1.88;;;28.10;79.60;;;;;;5013595;28;20037;-75
2022/07/05 08:39:04;;;;;;;3.85;1.65;;;28.10;78.40;;;;;;4995708;28;20186;-75
2022/07/05 08:41:32;;;;;;;1.98;1.65;;;28.10;78.60;;;;;;5013560;28;20100;-76
2022/07/05 08:43:59;;;;;;;5.43;1.70;;;28.30;80.20;;;;;;4995776;28;20025;-75
2022/07/05 08:46:28;;;;;;;2.03;1.92;;;28.40;78.30;;;;;;5013276;28;20029;-76
2022/07/05 08:48:55;;;;;;;4.78;2.05;;;28.40;79.70;;;;;;5013151;28;20088;-75
2022/07/05 08:51:22;;;;;;;2.33;1.80;;;28.40;80.40;;;;;;5013236;28;20026;-76
2022/07/05 08:53:49;;;;;;;5.00;2.22;;;28.50;79.70;;;;;;4994468;28;20034;-75
2022/07/05 08:56:15;;;;;;;2.13;2.00;;;28.50;80.80;;;;;;5012631;28;20058;-75
2022/07/05 08:58:42;;;;;;;8.38;2.10;;;28.50;80.00;;;;;;5012961;28;20032;-76
2022/07/05 09:01:10;;;;;;;3.15;2.28;;;28.60;80.00;;;;;;5013428;28;20026;-76
2022/07/05 09:03:48;;;;;;;3.50;2.17;;;28.60;78.80;;;;;;4995680;28;20022;-75
2022/07/05 09:06:17;;;;;;;3.72;2.13;;;28.60;79.20;;;;;;4995533;28;20045;-75
2022/07/05 09:08:44;;;;;;;2.85;1.92;;;28.70;81.90;;;;;;4995416;28;20064;-75
2022/07/05 09:11:12;;;;;;;4.72;2.28;;;28.80;81.00;;;;;;5013120;28;20113;-75
2022/07/05 09:13:47;;;;;;;2.67;2.30;;;28.90;81.60;;;;;;4995028;28;20030;-76
2022/07/05 09:16:13;;;;;;;6.40;2.40;;;29.00;81.60;;;;;;4995843;28;20034;-75
2022/07/05 09:18:49;;;;;;;2.15;2.05;;;29.10;80.50;;;;;;4993210;28;20014;-75
2022/07/05 09:21:23;;;;;;;2.38;2.13;;;29.30;80.00;;;;;;4993395;28;20050;-75
2022/07/05 09:23:58;;;;;;;9.88;2.20;;;29.30;79.30;;;;;;4993348;28;20102;-75
2022/07/05 09:26:52;;;;;;;2.78;1.85;;;29.30;80.00;;;;;;4975722;28;20033;-75
2022/07/05 09:29:21;;;;;;;5.75;2.13;;;29.30;78.50;;;;;;4985418;28;20043;-76
2022/07/05 09:31:49;;;;;;;1.90;1.80;;;29.30;78.00;;;;;;4993189;28;20512;-76
2022/07/05 09:34:18;;;;;;;6.28;2.25;;;29.50;78.70;;;;;;4975884;28;20065;-75
2022/07/05 09:37:03;;;;;;;4.55;2.10;;;29.50;76.90;;;;;;4993075;28;20037;-75
2022/07/05 09:39:29;;;;;;;3.65;2.25;;;29.60;77.00;;;;;;4993413;28;20057;-75
2022/07/05 09:42:11;;;;;;;2.40;2.30;;;29.60;75.60;;;;;;4975711;28;20449;-75
2022/07/05 09:44:51;;;;;;;4.40;2.30;;;29.60;76.20;;;;;;4975495;28;20481;-76
2022/07/05 09:47:18;;;;;;;3.72;2.28;;;29.60;76.50;;;;;;4993082;28;20022;-75
2022/07/05 09:49:46;;;;;;;2.40;2.08;;;29.60;77.20;;;;;;4993068;28;20057;-75
2022/07/05 09:52:27;;;;;;;3.95;2.00;;;29.70;77.80;;;;;;4993100;28;20428;-76
2022/07/05 09:55:09;;;;;;;3.33;2.10;;;29.80;76.50;;;;;;4993079;28;20605;-76
2022/07/05 09:57:40;;;;;;;4.50;2.17;;;29.90;76.00;;;;;;4993030;28;20026;-75
2022/07/05 10:00:07;;;;;;;3.63;2.03;;;30.00;74.20;;;;;;4975439;28;20029;-75
2022/07/05 10:02:41;;;;;;;2.28;2.08;;;29.90;73.60;;;;;;4992981;28;20045;-76
2022/07/05 10:05:14;;;;;;;3.65;2.20;;;29.90;72.10;;;;;;4993063;28;20097;-75
2022/07/05 10:07:45;;;;;;;2.15;1.83;;;30.00;74.90;;;;;;4975706;28;20026;-75
2022/07/05 10:10:14;;;;;;;2.53;2.08;;;30.10;74.10;;;;;;4978884;28;20030;-75
2022/07/05 10:12:41;;;;;;;4.50;2.00;;;30.10;72.70;;;;;;4979447;28;20093;-75
2022/07/05 10:15:11;;;;;;;2.13;2.03;;;30.10;71.80;;;;;;4996657;28;20069;-75
2022/07/05 10:17:40;;;;;;;4.35;2.17;;;30.10;70.80;;;;;;4996521;28;20027;-75
2022/07/05 10:20:18;;;;;;;4.00;1.92;;;30.10;71.00;;;;;;4996482;28;20019;-75
2022/07/05 10:22:43;;;;;;;2.40;1.67;;;30.10;70.80;;;;;;4996563;28;20502;-75
2022/07/05 10:25:10;;;;;;;2.88;1.70;;;30.10;71.10;;;;;;4979060;28;20027;-75
2022/07/05 10:27:36;;;;;;;3.65;2.38;;;30.30;73.00;;;;;;4996194;28;20034;-75
2022/07/05 10:30:04;;;;;;;2.53;2.20;;;30.40;70.50;;;;;;4996231;28;20470;-76
2022/07/05 10:32:30;;;;;;;4.85;2.00;;;30.40;69.90;;;;;;4996440;28;20461;-75
2022/07/05 10:34:58;;;;;;;3.28;2.20;;;30.60;68.40;;;;;;4996357;28;20046;-75
2022/07/05 10:37:27;;;;;;;1.90;1.80;;;30.60;69.30;;;;;;4996019;28;20030;-75
2022/07/05 10:39:58;;;;;;;2.75;2.47;;;30.60;69.20;;;;;;4978461;28;20037;-76
2022/07/05 10:42:25;;;;;;;1.80;1.58;;;30.70;70.70;;;;;;4996306;28;20023;-76
2022/07/05 10:44:51;;;;;;;1.83;1.70;;;30.70;70.20;;;;;;4995997;28;20030;-76
2022/07/05 10:47:18;;;;;;;2.15;1.95;;;30.90;71.60;;;;;;4978231;28;20037;-75
2022/07/05 10:50:04;;;;;;;2.63;2.42;;;31.00;69.60;;;;;;4996145;28;20039;-75
2022/07/05 10:52:30;;;;;;;8.80;2.33;;;31.00;67.90;;;;;;5008507;28;20038;-75
2022/07/05 10:55:19;;;;;;;2.53;2.42;;;31.10;68.40;;;;;;4997937;28;20511;-76
2022/07/05 10:58:04;;;;;;;3.90;2.67;;;31.10;69.40;;;;;;4997551;28;20495;-75
2022/07/05 11:00:30;;;;;;;2.97;2.50;;;31.20;66.30;;;;;;5015143;28;20026;-75
2022/07/05 11:03:07;;;;;;;3.90;2.22;;;31.20;66.30;;;;;;4997891;28;20029;-75
2022/07/05 11:05:33;;;;;;;3.97;2.00;;;31.20;67.60;;;;;;5015301;28;20980;-75
2022/07/05 11:08:03;;;;;;;5.25;1.92;;;31.40;66.40;;;;;;4997587;28;20522;-76
2022/07/05 11:10:31;;;;;;;5.13;2.30;;;31.40;66.00;;;;;;4997585;28;20052;-76
2022/07/05 11:12:57;;;;;;;4.85;2.13;;;31.60;65.80;;;;;;5015020;28;20026;-75
2022/07/05 11:15:22;;;;;;;3.72;2.33;;;31.60;65.00;;;;;;4997487;28;20022;-75
2022/07/05 11:17:48;;;;;;;3.03;2.35;;;31.70;65.00;;;;;;5015456;28;20345;-75
2022/07/05 11:20:26;;;;;;;3.15;2.10;;;31.70;64.00;;;;;;5014154;28;20535;-75
2022/07/05 11:23:05;;;;;;;2.08;1.95;;;31.70;62.50;;;;;;4998608;28;20022;-75
2022/07/05 11:25:34;;;;;;;2.60;2.40;;;31.70;64.60;;;;;;4977788;28;20112;-75
2022/07/05 11:28:25;;;;;;;5.40;2.58;;;31.80;64.20;;;;;;4995071;28;20026;-76
2022/07/05 11:30:53;;;;;;;2.83;2.15;;;31.80;63.60;;;;;;4995102;28;20038;-75
2022/07/05 11:33:31;;;;;;;4.07;1.95;;;31.90;64.80;;;;;;4995048;28;20117;-75
2022/07/05 11:36:00;;;;;;;4.35;2.17;;;32.00;64.20;;;;;;4977492;28;20030;-75
2022/07/05 11:38:26;;;;;;;5.07;2.03;;;32.20;66.30;;;;;;4994898;28;20030;-75
2022/07/05 11:40:53;;;;;;;2.63;2.35;;;32.30;64.60;;;;;;4994860;28;20109;-75
2022/07/05 11:43:30;;;;;;;1.88;1.77;;;32.40;62.80;;;;;;4994889;28;20493;-75
2022/07/05 11:45:58;;;;;;;4.00;2.88;;;32.50;63.10;;;;;;4994847;28;20381;-75
2022/07/05 11:48:25;;;;;;;3.60;2.38;;;32.50;61.50;;;;;;4976872;28;20031;-75
2022/07/05 11:50:51;;;;;;;1.85;1.67;;;32.50;61.90;;;;;;4977434;28;20032;-75
2022/07/05 11:53:31;;;;;;;2.08;1.98;;;32.60;61.30;;;;;;4994905;28;20026;-75
2022/07/05 11:55:59;;;;;;;3.92;2.20;;;32.80;61.30;;;;;;4976931;28;20084;-76
2022/07/05 11:58:32;;;;;;;2.05;1.85;;;32.80;59.20;;;;;;4976986;28;20042;-75
2022/07/05 12:00:59;;;;;;;2.40;2.22;;;33.00;59.60;;;;;;4976988;28;20033;-75
2022/07/05 12:03:25;;;;;;;3.22;1.98;;;33.00;58.80;;;;;;4977197;28;20033;-75
2022/07/05 12:05:52;;;;;;;2.00;1.90;;;33.20;59.00;;;;;;4976864;28;20416;-75
2022/07/05 12:08:22;;;;;;;3.55;1.95;;;33.40;58.20;;;;;;4976661;28;20046;-75
2022/07/05 12:13:46;;;;;;;3.22;1.73;;;33.40;56.70;;;;;;4994234;28;20515;-75
2022/07/05 12:16:13;;;;;;;3.58;2.22;;;33.50;57.30;;;;;;4994218;28;20026;-75
2022/07/05 12:18:56;;;;;;;2.20;2.00;;;33.50;57.50;;;;;;4993967;28;20030;-75
2022/07/05 12:21:23;;;;;;;3.20;1.75;;;33.80;56.80;;;;;;4976018;28;20030;-75
2022/07/05 12:23:50;;;;;;;4.25;2.10;;;33.90;55.80;;;;;;4993454;28;20038;-75
2022/07/05 12:26:17;;;;;;;3.67;2.13;;;34.00;55.50;;;;;;4975680;28;20145;-75
2022/07/05 12:28:44;;;;;;;2.42;1.92;;;33.90;54.60;;;;;;4993451;28;20061;-75
2022/07/05 12:31:20;;;;;;;2.90;1.92;;;34.00;55.50;;;;;;4992850;28;20026;-75
2022/07/05 12:33:47;;;;;;;2.78;1.60;;;34.30;56.70;;;;;;4976106;28;20030;-75
2022/07/05 12:36:18;;;;;;;1.98;1.77;;;34.40;56.20;;;;;;4993514;28;20027;-75
2022/07/05 12:38:44;;;;;;;1.80;1.70;;;34.50;55.50;;;;;;4993811;28;20027;-75
2022/07/05 12:41:11;;;;;;;2.15;2.05;;;34.50;55.50;;;;;;4993794;28;20022;-75
2022/07/05 12:43:51;;;;;;;3.05;2.00;;;34.50;53.70;;;;;;4993802;28;20022;-75
2022/07/05 12:46:17;;;;;;;2.17;1.75;;;34.60;54.80;;;;;;4976249;28;20488;-75
2022/07/05 12:48:43;;;;;;;9.27;1.65;;;34.60;54.80;;;;;;4993539;28;20787;-75
2022/07/05 12:51:10;;;;;;;4.85;1.67;;;34.60;53.20;;;;;;4976228;28;20030;-75
2022/07/05 12:59:13;;;;;;;4.75;1.50;;;35.00;55.00;;;;;;4993363;28;20134;-75
2022/07/05 13:01:41;;;;;;;1.92;1.25;;;35.00;53.40;;;;;;5010868;28;20100;-75
2022/07/05 13:04:17;;;;;;;2.38;1.50;;;35.10;53.30;;;;;;4995329;28;20049;-75